createdAt,value
2023-05-22T00:02:18.144Z,10.80
2023-05-22T00:04:47.123Z,14.20
2023-05-22T00:07:15.821Z,11.10
2023-05-22T00:09:44.181Z,10.60
2023-05-22T00:12:12.586Z,11.70
2023-05-22T00:14:40.961Z,9.20
2023-05-22T00:17:10.505Z,9.90
2023-05-22T00:19:38.977Z,9.70
2023-05-22T00:22:07.479Z,8.50
2023-05-22T00:24:36.333Z,8.60
2023-05-22T00:27:05.253Z,11.20
2023-05-22T00:29:33.665Z,8.80
2023-05-22T00:32:02.059Z,10.30
2023-05-22T00:34:30.435Z,10.50
2023-05-22T00:36:58.927Z,11.80
2023-05-22T00:39:27.444Z,9.80
2023-05-22T00:41:55.853Z,10.40
2023-05-22T00:44:24.552Z,7.80
2023-05-22T00:46:53.135Z,11.00
2023-05-22T00:49:21.545Z,9.60
2023-05-22T00:51:50.266Z,9.60
2023-05-22T00:54:18.827Z,10.10
2023-05-22T00:56:47.923Z,8.50
2023-05-22T00:59:17.632Z,8.60
2023-05-22T01:01:46.392Z,11.60
2023-05-22T01:04:15.756Z,11.80
2023-05-22T01:06:47.930Z,8.80
2023-05-22T01:09:16.410Z,11.40
2023-05-22T01:12:16.327Z,9.70
2023-05-22T01:15:00.506Z,7.30
2023-05-22T01:17:56.017Z,9.00
2023-05-22T01:20:49.186Z,9.20
2023-05-22T01:23:49.148Z,10.20
2023-05-22T01:26:23.576Z,11.40
2023-05-22T01:29:13.687Z,9.80
2023-05-22T01:31:44.160Z,10.10
2023-05-22T01:34:14.146Z,9.50
2023-05-22T01:36:47.362Z,8.30
2023-05-22T01:39:16.549Z,8.90
2023-05-22T01:41:45.886Z,9.00
2023-05-22T01:44:15.114Z,12.00
2023-05-22T01:46:43.505Z,11.70
2023-05-22T01:49:11.908Z,8.90
2023-05-22T01:51:54.647Z,10.50
2023-05-22T01:54:47.038Z,10.00
2023-05-22T01:57:51.169Z,10.60
2023-05-22T02:00:22.660Z,9.30
2023-05-22T02:03:16.858Z,11.80
2023-05-22T02:05:47.347Z,10.40
2023-05-22T02:08:17.010Z,10.80
2023-05-22T02:10:46.809Z,11.80
2023-05-22T02:13:15.336Z,14.70
2023-05-22T02:15:46.786Z,10.70
2023-05-22T02:18:15.259Z,14.90
2023-05-22T02:20:44.166Z,15.10
2023-05-22T02:23:12.681Z,13.60
2023-05-22T02:25:41.459Z,14.40
2023-05-22T02:28:09.934Z,13.20
2023-05-22T02:30:38.798Z,13.70
2023-05-22T02:33:09.687Z,13.40
2023-05-22T02:38:06.992Z,13.10
2023-05-22T02:40:35.452Z,16.50
2023-05-22T02:43:04.038Z,12.90
2023-05-22T02:45:33.235Z,16.60
2023-05-22T02:48:03.937Z,15.40
2023-05-22T02:50:32.414Z,13.20
2023-05-22T02:53:00.987Z,17.10
2023-05-22T02:55:29.481Z,14.70
2023-05-22T02:57:57.986Z,12.70
2023-05-22T03:00:26.509Z,13.00
2023-05-22T03:02:55.016Z,12.60
2023-05-22T03:05:23.511Z,12.50
2023-05-22T03:07:53.061Z,14.10
2023-05-22T03:10:21.555Z,14.20
2023-05-22T03:12:52.086Z,12.90
2023-05-22T03:15:20.966Z,15.00
2023-05-22T03:17:49.407Z,13.40
2023-05-22T03:20:18.207Z,15.00
2023-05-22T03:22:46.625Z,17.00
2023-05-22T03:25:15.043Z,10.30
2023-05-22T03:27:43.614Z,15.10
2023-05-22T03:30:12.783Z,11.90
2023-05-22T03:32:41.298Z,10.20
2023-05-22T03:35:10.209Z,14.80
2023-05-22T03:37:38.528Z,10.30
2023-05-22T03:40:08.049Z,13.50
2023-05-22T03:42:36.387Z,13.40
2023-05-22T03:45:05.389Z,12.50
2023-05-22T03:47:33.816Z,13.90
2023-05-22T03:50:02.166Z,10.70
2023-05-22T03:52:30.675Z,13.20
2023-05-22T03:54:59.241Z,10.00
2023-05-22T03:57:27.705Z,12.30
2023-05-22T03:59:56.077Z,12.50
2023-05-22T04:02:26.583Z,13.90
2023-05-22T04:04:55.189Z,11.90
2023-05-22T04:07:23.596Z,14.60
2023-05-22T04:09:51.986Z,11.90
2023-05-22T04:12:20.369Z,14.10
2023-05-22T04:14:48.602Z,12.60
2023-05-22T04:17:16.997Z,15.40
2023-05-22T04:19:45.333Z,14.00
2023-05-22T04:22:13.668Z,15.40
2023-05-22T04:24:42.011Z,12.70
2023-05-22T04:27:10.501Z,12.80
2023-05-22T04:29:41.870Z,12.20
2023-05-22T04:32:10.988Z,11.70
2023-05-22T04:34:39.344Z,11.60
2023-05-22T04:37:07.710Z,12.40
2023-05-22T04:39:36.263Z,11.30
2023-05-22T04:42:06.432Z,12.20
2023-05-22T04:44:35.000Z,9.80
2023-05-22T04:47:06.065Z,12.00
2023-05-22T04:49:36.160Z,15.50
2023-05-22T04:52:06.447Z,11.50
2023-05-22T04:54:34.802Z,14.00
2023-05-22T04:57:05.113Z,10.00
2023-05-22T04:59:40.282Z,13.60
2023-05-22T05:02:08.734Z,12.70
2023-05-22T05:04:37.474Z,11.10
2023-05-22T05:07:06.538Z,10.30
2023-05-22T05:09:35.017Z,11.00
2023-05-22T05:15:30.610Z,11.20
2023-05-22T05:19:12.028Z,11.80
2023-05-22T05:21:55.571Z,13.70
2023-05-22T05:24:56.048Z,11.20
2023-05-22T05:28:33.326Z,12.10
2023-05-22T05:32:01.440Z,12.80
2023-05-22T05:34:30.517Z,11.30
2023-05-22T05:37:56.734Z,10.60
2023-05-22T05:40:39.709Z,12.10
2023-05-22T05:47:20.535Z,11.30
2023-05-22T05:50:48.891Z,11.90
2023-05-22T05:54:15.500Z,12.30
2023-05-22T06:01:45.636Z,9.30
2023-05-22T06:04:36.130Z,7.60
2023-05-22T06:07:07.124Z,8.90
2023-05-22T06:10:31.077Z,8.80
2023-05-22T06:13:41.697Z,10.60
2023-05-22T06:20:18.562Z,9.10
2023-05-22T06:23:59.504Z,9.30
2023-05-22T06:31:37.846Z,6.90
2023-05-22T06:37:54.343Z,8.90
2023-05-22T06:51:05.654Z,14.80
2023-05-22T06:54:32.035Z,9.90
2023-05-22T06:57:57.080Z,9.40
2023-05-22T07:01:14.410Z,8.80
2023-05-22T07:07:36.685Z,14.60
2023-05-22T07:18:40.833Z,10.60
2023-05-22T07:26:06.846Z,8.50
2023-05-22T07:28:54.473Z,8.60
2023-05-22T07:41:16.903Z,7.90
2023-05-22T07:44:22.456Z,5.70
2023-05-22T07:50:55.554Z,5.70
2023-05-22T07:56:42.345Z,7.70
2023-05-22T07:59:18.929Z,7.50
2023-05-22T08:02:42.710Z,4.20
2023-05-22T08:06:02.600Z,4.50
2023-05-22T08:08:39.758Z,7.30
2023-05-22T08:15:27.820Z,5.40
2023-05-22T08:18:38.869Z,5.30
2023-05-22T08:24:22.724Z,5.50
2023-05-22T08:27:12.824Z,5.20
2023-05-22T08:37:04.389Z,7.30
2023-05-22T08:39:54.381Z,6.30
2023-05-22T08:56:57.677Z,10.10
2023-05-22T09:00:16.112Z,9.50
2023-05-22T09:03:49.089Z,6.60
2023-05-22T09:07:02.296Z,6.20
2023-05-22T09:09:45.125Z,8.10
2023-05-22T09:12:14.680Z,6.20
2023-05-22T09:14:45.314Z,5.70
2023-05-22T09:17:17.653Z,5.90
2023-05-22T09:19:46.722Z,6.20
2023-05-22T09:22:15.316Z,6.80
2023-05-22T09:24:46.488Z,4.20
2023-05-22T09:27:28.722Z,6.00
2023-05-22T09:30:09.544Z,5.90
2023-05-22T09:33:14.327Z,7.70
2023-05-22T09:35:50.282Z,5.90
2023-05-22T09:38:30.586Z,4.50
2023-05-22T09:42:05.356Z,4.90
2023-05-22T09:45:09.457Z,5.70
2023-05-22T09:49:05.528Z,6.60
2023-05-22T09:51:54.823Z,5.60
2023-05-22T09:55:12.636Z,5.60
2023-05-22T09:59:20.360Z,5.70
2023-05-22T10:02:07.253Z,6.10
2023-05-22T10:05:37.457Z,7.10
2023-05-22T10:15:32.462Z,4.40
2023-05-22T10:18:33.642Z,6.70
2023-05-22T10:21:06.474Z,5.70
2023-05-22T10:24:27.052Z,7.50
2023-05-22T10:28:02.750Z,5.60
2023-05-22T10:30:49.112Z,4.30
2023-05-22T10:34:01.432Z,5.30
2023-05-22T10:37:17.293Z,5.60
2023-05-22T10:40:19.840Z,6.40
2023-05-22T10:43:19.189Z,5.00
2023-05-22T10:46:19.393Z,7.90
2023-05-22T10:49:05.989Z,7.20
2023-05-22T10:52:09.128Z,4.60
2023-05-22T10:54:45.789Z,3.30
2023-05-22T10:57:16.700Z,5.10
2023-05-22T10:59:51.732Z,4.70
2023-05-22T11:02:22.452Z,6.60
2023-05-22T11:04:51.325Z,3.50
2023-05-22T11:07:19.957Z,3.50
2023-05-22T11:09:48.973Z,7.40
2023-05-22T11:12:19.758Z,5.80
2023-05-22T11:15:11.323Z,6.90
2023-05-22T11:17:40.205Z,3.80
2023-05-22T11:20:26.113Z,4.30
2023-05-22T11:23:04.564Z,6.20
2023-05-22T11:25:37.969Z,6.30
2023-05-22T11:28:08.201Z,4.90
2023-05-22T11:30:38.575Z,4.90
2023-05-22T11:33:07.454Z,5.40
2023-05-22T11:35:36.227Z,6.00
2023-05-22T11:38:08.340Z,4.50
2023-05-22T11:40:36.899Z,5.20
2023-05-22T11:43:05.534Z,4.20
2023-05-22T11:45:38.072Z,5.10
2023-05-22T11:48:09.233Z,4.70
2023-05-22T11:50:43.960Z,5.80
2023-05-22T11:53:12.977Z,5.40
2023-05-22T11:55:43.514Z,6.60
2023-05-22T11:58:12.054Z,5.10
2023-05-22T12:00:40.775Z,5.20
2023-05-22T12:06:09.758Z,4.40
2023-05-22T12:09:30.708Z,6.00
2023-05-22T12:11:59.350Z,8.50
2023-05-22T12:14:33.770Z,5.60
2023-05-22T12:17:12.836Z,6.00
2023-05-22T12:19:42.352Z,8.60
2023-05-22T12:22:11.770Z,6.10
2023-05-22T12:24:47.726Z,5.00
2023-05-22T12:27:16.197Z,6.70
2023-05-22T12:29:44.683Z,4.60
2023-05-22T12:32:14.036Z,5.40
2023-05-22T12:34:45.218Z,4.50
2023-05-22T12:37:25.452Z,4.20
2023-05-22T12:39:58.832Z,7.30
2023-05-22T12:42:28.362Z,6.30
2023-05-22T12:44:58.428Z,3.60
2023-05-22T12:47:27.285Z,3.50
2023-05-22T12:49:56.371Z,7.50
2023-05-22T12:52:24.979Z,5.10
2023-05-22T12:54:53.554Z,5.10
2023-05-22T12:57:22.191Z,6.90
2023-05-22T12:59:50.749Z,4.70
2023-05-22T13:02:19.871Z,4.00
2023-05-22T13:04:48.481Z,4.80
2023-05-22T13:07:17.064Z,5.00
2023-05-22T13:09:45.503Z,5.80
2023-05-22T13:12:14.163Z,5.60
2023-05-22T13:14:42.608Z,4.20
2023-05-22T13:17:11.470Z,6.90
2023-05-22T13:19:39.985Z,4.40
2023-05-22T13:22:09.274Z,4.80
2023-05-22T13:24:37.737Z,5.20
2023-05-22T13:27:06.476Z,4.50
2023-05-22T13:29:34.985Z,5.70
2023-05-22T13:32:03.510Z,4.90
2023-05-22T13:34:32.041Z,7.00
2023-05-22T13:37:00.677Z,4.10
2023-05-22T13:39:29.304Z,4.50
2023-05-22T13:41:57.988Z,5.00
2023-05-22T13:44:27.089Z,5.10
2023-05-22T13:46:55.929Z,4.40
2023-05-22T13:49:24.478Z,10.00
2023-05-22T13:51:53.504Z,4.90
2023-05-22T13:54:22.128Z,4.40
2023-05-22T13:56:50.559Z,6.10
2023-05-22T13:59:18.994Z,5.70
2023-05-22T14:01:48.707Z,6.40
2023-05-22T14:04:17.210Z,4.50
2023-05-22T14:06:45.640Z,5.10
2023-05-22T14:09:14.069Z,5.70
2023-05-22T14:11:42.569Z,4.90
2023-05-22T14:14:11.259Z,7.60
2023-05-22T14:16:42.765Z,7.70
2023-05-22T14:19:11.266Z,8.30
2023-05-22T14:21:39.731Z,4.00
2023-05-22T14:24:08.242Z,6.40
2023-05-22T14:26:36.608Z,6.80
2023-05-22T14:29:05.312Z,4.90
2023-05-22T14:31:45.231Z,4.70
2023-05-22T14:34:15.946Z,4.40
2023-05-22T14:36:44.467Z,3.90
2023-05-22T14:39:12.912Z,5.50
2023-05-22T14:41:41.471Z,7.60
2023-05-22T14:44:10.107Z,5.50
2023-05-22T14:46:38.463Z,5.00
2023-05-22T14:49:07.173Z,5.00
2023-05-22T14:51:35.610Z,4.90
2023-05-22T14:54:05.838Z,6.90
2023-05-22T14:56:34.409Z,4.80
2023-05-22T14:59:02.980Z,6.10
2023-05-22T15:01:31.586Z,5.20
2023-05-22T15:04:00.102Z,6.10
2023-05-22T15:06:29.695Z,5.40
2023-05-22T15:08:58.301Z,4.50
2023-05-22T15:11:27.421Z,6.50
2023-05-22T15:13:55.916Z,5.20
2023-05-22T15:16:26.047Z,5.40
2023-05-22T15:18:55.537Z,5.50
2023-05-22T15:21:24.500Z,4.60
2023-05-22T15:23:52.901Z,5.90
2023-05-22T15:26:21.900Z,4.00
2023-05-22T15:28:50.467Z,4.60
2023-05-22T15:31:18.980Z,6.10
2023-05-22T15:33:47.555Z,7.10
2023-05-22T15:36:16.269Z,5.20
2023-05-22T15:38:44.797Z,4.80
2023-05-22T15:41:13.919Z,5.50
2023-05-22T15:43:42.519Z,4.10
2023-05-22T15:46:12.809Z,4.90
2023-05-22T15:51:10.061Z,4.10
2023-05-22T15:53:39.592Z,5.60
2023-05-22T15:56:09.180Z,3.60
2023-05-22T15:58:37.603Z,4.70
2023-05-22T16:01:08.079Z,6.30
2023-05-22T16:06:05.065Z,6.80
2023-05-22T16:08:33.668Z,3.90
2023-05-22T16:11:02.159Z,8.40
2023-05-22T16:13:30.987Z,3.80
2023-05-22T16:15:59.608Z,5.30
2023-05-22T16:18:28.188Z,4.80
2023-05-22T16:20:56.606Z,5.60
2023-05-22T16:23:25.256Z,6.90
2023-05-22T16:25:53.770Z,6.50
2023-05-22T16:28:22.323Z,6.30
2023-05-22T16:30:50.793Z,6.10
2023-05-22T16:33:19.183Z,4.70
2023-05-22T16:35:47.683Z,6.70
2023-05-22T16:38:16.236Z,4.50
2023-05-22T16:40:44.730Z,6.20
2023-05-22T16:43:14.269Z,5.00
2023-05-22T16:45:46.995Z,7.20
2023-05-22T16:48:15.485Z,4.00
2023-05-22T16:50:44.999Z,5.40
2023-05-22T16:53:16.943Z,4.50
2023-05-22T16:55:45.781Z,6.00
2023-05-22T16:58:14.532Z,4.50
2023-05-22T17:00:43.273Z,7.20
2023-05-22T17:03:12.305Z,4.10
2023-05-22T17:05:41.241Z,5.00
2023-05-22T17:08:10.312Z,9.30
2023-05-22T17:10:38.888Z,5.20
2023-05-22T17:13:07.982Z,12.50
2023-05-22T17:15:36.402Z,5.80
2023-05-22T17:18:05.080Z,4.80
2023-05-22T17:20:34.396Z,9.40
2023-05-22T17:23:02.823Z,6.00
2023-05-22T17:37:10.985Z,4.80
2023-05-22T17:39:39.575Z,6.00
2023-05-22T17:42:08.104Z,5.30
2023-05-22T17:44:38.693Z,4.90
2023-05-22T17:47:07.635Z,5.40
2023-05-22T17:49:37.929Z,5.20
2023-05-22T17:52:08.904Z,6.10
2023-05-22T17:54:37.743Z,7.00
2023-05-22T17:57:06.491Z,5.60
2023-05-22T17:59:34.932Z,5.50
2023-05-22T18:02:03.364Z,5.40
2023-05-22T18:04:31.825Z,5.40
2023-05-22T18:07:00.167Z,10.00
2023-05-22T18:09:28.574Z,9.10
2023-05-22T18:12:03.947Z,10.50
2023-05-22T18:14:32.868Z,10.80
2023-05-22T18:17:01.263Z,6.60
2023-05-22T18:19:29.792Z,7.30
2023-05-22T18:21:58.207Z,5.90
2023-05-22T18:24:28.495Z,8.20
2023-05-22T18:26:57.076Z,5.90
2023-05-22T18:29:25.451Z,8.80
2023-05-22T18:31:54.131Z,9.00
2023-05-22T18:34:22.744Z,7.00
2023-05-22T18:36:52.981Z,6.70
2023-05-22T18:39:21.820Z,6.50
2023-05-22T18:41:50.858Z,10.10
2023-05-22T18:44:19.245Z,7.70
2023-05-22T18:46:47.917Z,6.60
2023-05-22T18:49:16.394Z,8.20
2023-05-22T18:52:02.444Z,7.40
2023-05-22T18:57:52.740Z,7.90
2023-05-22T19:00:21.255Z,6.50
2023-05-22T19:03:31.082Z,6.70
2023-05-22T19:07:03.503Z,7.10
2023-05-22T19:09:39.663Z,7.80
2023-05-22T19:12:08.213Z,9.80
2023-05-22T19:14:36.991Z,7.80
2023-05-22T19:17:08.030Z,8.50
2023-05-22T19:19:36.851Z,8.20
2023-05-22T19:22:06.998Z,6.00
2023-05-22T19:24:38.702Z,8.10
2023-05-22T19:27:07.530Z,8.50
2023-05-22T19:29:36.211Z,8.90
2023-05-22T19:32:04.692Z,7.40
2023-05-22T19:34:33.408Z,9.40
2023-05-22T19:37:01.920Z,9.40
2023-05-22T19:39:30.192Z,10.60
2023-05-22T19:41:58.544Z,9.70
2023-05-22T19:44:26.971Z,9.40
2023-05-22T19:46:56.986Z,9.40
2023-05-22T19:49:25.477Z,9.00
2023-05-22T19:51:55.916Z,11.10
2023-05-22T19:54:25.135Z,11.40
2023-05-22T19:56:53.797Z,9.90
2023-05-22T19:59:22.404Z,14.10
2023-05-22T20:01:53.894Z,9.10
2023-05-22T20:04:23.544Z,10.30
2023-05-22T20:06:52.144Z,11.90
2023-05-22T20:09:20.953Z,16.70
2023-05-22T20:11:50.103Z,8.30
2023-05-22T20:14:18.742Z,10.40
2023-05-22T20:16:50.649Z,11.70
2023-05-22T20:19:20.511Z,9.00
2023-05-22T20:21:52.342Z,9.10
2023-05-22T20:24:21.447Z,9.20
2023-05-22T20:26:49.965Z,11.40
2023-05-22T20:29:18.921Z,9.30
2023-05-22T20:31:47.703Z,7.70
2023-05-22T20:34:19.577Z,9.20
2023-05-22T20:36:48.817Z,9.90
2023-05-22T20:39:18.359Z,10.20
2023-05-22T20:41:50.161Z,16.10
2023-05-22T20:44:23.829Z,9.90
2023-05-22T20:46:53.829Z,8.70
2023-05-22T20:49:22.916Z,11.20
2023-05-22T20:51:54.549Z,12.40
2023-05-22T20:54:23.149Z,11.70
2023-05-22T20:56:53.258Z,11.50
2023-05-22T20:59:23.324Z,10.50
2023-05-22T21:01:52.762Z,15.30
2023-05-22T21:04:22.155Z,10.70
2023-05-22T21:06:53.037Z,9.10
2023-05-22T21:09:24.816Z,11.00
2023-05-22T21:11:53.914Z,14.70
2023-05-22T21:14:26.616Z,12.70
2023-05-22T21:16:56.113Z,11.90
2023-05-22T21:19:26.270Z,11.30
2023-05-22T21:21:55.020Z,10.40
2023-05-22T21:24:23.521Z,10.60
2023-05-22T21:26:52.310Z,11.20
2023-05-22T21:29:21.499Z,11.40
2023-05-22T21:31:50.472Z,12.90
2023-05-22T21:34:19.025Z,13.80
2023-05-22T21:36:47.460Z,17.00
2023-05-22T21:39:16.945Z,13.70
2023-05-22T21:41:45.680Z,11.40
2023-05-22T21:44:14.693Z,14.10
2023-05-22T21:46:46.483Z,12.30
2023-05-22T21:49:21.604Z,12.10
2023-05-22T21:51:52.715Z,11.20
2023-05-22T21:54:22.645Z,10.80
2023-05-22T21:56:51.073Z,13.10
2023-05-22T21:59:19.515Z,12.90
2023-05-22T22:01:47.925Z,12.70
2023-05-22T22:04:16.421Z,11.60
2023-05-22T22:06:44.858Z,12.00
2023-05-22T22:09:13.390Z,13.00
2023-05-22T22:11:41.749Z,13.70
2023-05-22T22:14:10.351Z,12.10
2023-05-22T22:16:40.853Z,13.50
2023-05-22T22:21:38.181Z,13.10
2023-05-22T22:24:06.890Z,12.50
2023-05-22T22:26:35.912Z,14.30
2023-05-22T22:29:04.420Z,10.60
2023-05-22T22:31:32.824Z,12.90
2023-05-22T22:34:01.455Z,12.70
2023-05-22T22:40:42.521Z,12.10
2023-05-22T22:43:11.295Z,12.60
2023-05-22T22:45:42.933Z,12.60
2023-05-22T22:48:11.507Z,11.60
2023-05-22T22:50:40.436Z,13.60
2023-05-22T22:53:08.993Z,11.40
2023-05-22T22:55:37.757Z,12.60
2023-05-22T22:58:07.056Z,11.60
2023-05-22T23:00:36.949Z,12.60
2023-05-22T23:03:05.511Z,10.70
2023-05-22T23:05:34.144Z,10.20
2023-05-22T23:08:02.589Z,12.30
2023-05-22T23:10:30.958Z,13.00
2023-05-22T23:12:59.517Z,13.40
2023-05-22T23:15:28.172Z,10.90
2023-05-22T23:17:56.771Z,13.30
2023-05-22T23:20:25.144Z,14.30
2023-05-22T23:22:53.652Z,12.70
2023-05-22T23:25:22.158Z,11.10
2023-05-22T23:27:51.023Z,11.60
2023-05-22T23:30:19.594Z,13.70
2023-05-22T23:32:48.035Z,11.80
2023-05-22T23:35:16.573Z,11.40
2023-05-22T23:37:44.916Z,11.60
2023-05-22T23:40:13.439Z,15.00
2023-05-22T23:42:41.863Z,13.50
2023-05-22T23:49:28.176Z,13.50
2023-05-22T23:51:56.548Z,13.90
2023-05-22T23:54:25.017Z,14.60
2023-05-22T23:56:53.451Z,11.20
2023-05-22T23:59:21.909Z,11.90
